Briefing drone pour Villeneuve-les-avignon

Rechercher une autre localisation

Conditions de vol :


Nous sommes le : Mardi 28 septembre 2021
Il est 22:16 UTC (00:16 LT)

Lever de soleil : 05:08 UTC (07:08 LT)
Coucher de soleil : 17:54 UTC (19:54 LT)

Météo

L'essentiel des conditions de vol

VIGILANCE MÉTÉO FRANCE - Gard (30)
Pas de vigilances particulieres
CARTE TEMSI
CARTES DES FRONTS
METAR de LFMV
LFMV 272200Z AUTO 34008KT CAVOK 19/15 Q1021

Date d'émission: 27/09/2021
Heure d'émission: 22:00 UTC
Vent: 340° pour 8 KT (15 km/h)
Visibilité horizontale: > 10 km
Plafond : Plafond et visibilité OK (CAVOK)
Température: 19 °C
Point de rosée: 15 °C
Humidité: 78%
Pression (QNH): 1021 hPa
TAF de LFMV
AMD LFMV 272000Z 2720/2815 CNL

Conditions prévues :

Heure d'émission : Bulletin éffectué le 27 à 20:00 UTC
Prévision : Valide du 27 a 20:00 UTC au 28 a 15:00 UTC
Nuages : à 0ft (0 m)
WEBCAM POUR VILLENEUVE-LES-AVIGNON

Réglementation

Voler en sécurité

CARTES AERONAUTIQUE 1/500.000
CARTES VAC (LFMV)
SUP AIP




Chargement des AIP...
NOTAM (VILLENEUVE-LES-AVIGNON + Terrain à proximité / FIR )




Chargement des NOTAMS...
CONTACT PREFECTURE 30


Avertissement : Les données mises à disposition sont indicatives. Oxygène Drone ne pourra être tenu responsable de dégâts causés aux biens et aux personnes.